Forest City, Iowa
Current Conditions -  °F | °C
As of 2:35 PM on Thursday 23 Oct 2014 (Local Time) from KFXY Reporting Station
Clear Clear  
Wind Chill: 64°   Ceiling: Unl
Heat Index: 64°   Visibility: 10mi
Dew Point: 50°   Wind: 7mph
Humidity: 59%   Direction: 280°W
Pressure: 30"   Gusts: NA
Location:  43.26°N, 93.64°W
Report Text: KFXY 231935Z AUTO 28006KT 10SM CLR 18/10 A3000 RMK AO2
Loading
Personal Weather Stations






























Interactive Weather Map
Tropical Storm Tracking
New forecast layout! Learn more

10-Day Weather Forecast

Advertisements
Track Severe Weather on mobile